ADDS METAR Data

Data at: 0042 UTC 21 Nov 2017

METAR for:KATL (Atlanta/Hartsfield-J, GA, US)
Text:KATL 202352Z 13004KT 10SM BKN200 BKN250 11/02 A3015 RMK AO2 SLP216 T01110017 10156 20100 55001
Temperature: 11.1°C ( 52°F)
Dewpoint: 1.7°C ( 35°F) [RH = 52%]
Pressure (altimeter):30.15 inches Hg (1021.1 mb) [Sea level pressure: 1021.6 mb]
Winds:from the SE (130 degrees) at 5 MPH (4 knots; 2.1 m/s)
Visibility:10 or more sm (16+ km)
Ceiling:20000 feet AGL
Clouds: broken clouds at 20000 feet AGL, broken clouds at 25000 feet AGL